createdAt,value
2019-01-25T00:01:15.704Z,-3.32
2019-01-25T00:03:43.660Z,-3.20
2019-01-25T00:06:11.305Z,-3.24
2019-01-25T00:08:39.269Z,-3.59
2019-01-25T00:11:07.242Z,-3.56
2019-01-25T00:13:35.214Z,-3.60
2019-01-25T00:16:03.187Z,-3.72
2019-01-25T00:18:31.151Z,-3.68
2019-01-25T00:20:59.127Z,-3.68
2019-01-25T00:23:27.091Z,-3.78
2019-01-25T00:25:55.060Z,-3.70
2019-01-25T00:28:22.689Z,-3.77
2019-01-25T00:30:50.585Z,-3.63
2019-01-25T00:33:18.558Z,-3.61
2019-01-25T00:35:46.531Z,-3.60
2019-01-25T00:38:14.166Z,-3.72
2019-01-25T00:40:42.057Z,-3.64
2019-01-25T00:43:10.127Z,-3.77
2019-01-25T00:45:37.768Z,-3.75
2019-01-25T00:48:05.402Z,-3.86
2019-01-25T00:50:33.325Z,-3.81
2019-01-25T00:53:01.291Z,-3.83
2019-01-25T00:55:29.263Z,-3.84
2019-01-25T00:57:56.884Z,-3.80
2019-01-25T01:00:24.530Z,-3.84
2019-01-25T01:02:52.154Z,-3.84
2019-01-25T01:05:20.115Z,-3.73
2019-01-25T01:07:48.086Z,-3.80
2019-01-25T01:10:16.058Z,-3.83
2019-01-25T01:12:43.692Z,-3.85
2019-01-25T01:15:11.320Z,-3.67
2019-01-25T01:17:38.958Z,-3.71
2019-01-25T01:20:06.608Z,-3.69
2019-01-25T01:22:34.572Z,-3.84
2019-01-25T01:25:02.219Z,-3.81
2019-01-25T01:27:30.102Z,-3.78
2019-01-25T01:29:57.742Z,-3.78
2019-01-25T01:32:25.632Z,-3.70
2019-01-25T01:34:53.274Z,-3.72
2019-01-25T01:37:20.902Z,-3.60
2019-01-25T01:39:48.542Z,-3.72
2019-01-25T01:42:16.531Z,-3.56
2019-01-25T01:44:44.457Z,-3.68
2019-01-25T01:47:12.422Z,-3.83
2019-01-25T01:49:40.058Z,-3.77
2019-01-25T01:52:07.704Z,-3.83
2019-01-25T01:54:35.342Z,-3.75
2019-01-25T01:57:02.987Z,-3.68
2019-01-25T01:59:30.624Z,-3.66
2019-01-25T02:01:58.274Z,-3.65
2019-01-25T02:04:26.163Z,-3.84
2019-01-25T02:06:54.136Z,-3.75
2019-01-25T02:09:22.099Z,-3.69
2019-01-25T02:11:50.066Z,-3.62
2019-01-25T02:14:18.053Z,-3.68
2019-01-25T02:16:46.012Z,-3.69
2019-01-25T02:19:13.980Z,-3.65
2019-01-25T02:21:41.954Z,-3.68
2019-01-25T02:24:09.919Z,-3.70
2019-01-25T02:26:37.886Z,-3.81
2019-01-25T02:29:05.877Z,-3.82
2019-01-25T02:31:33.828Z,-3.72
2019-01-25T02:34:01.479Z,-3.68
2019-01-25T02:36:29.462Z,-3.78
2019-01-25T02:38:57.091Z,-3.76
2019-01-25T02:41:24.743Z,-3.79
2019-01-25T02:43:52.372Z,-3.88
2019-01-25T02:46:20.008Z,-3.87
2019-01-25T02:48:47.982Z,-3.85
2019-01-25T02:51:15.620Z,-3.82
2019-01-25T02:53:43.611Z,-3.79
2019-01-25T02:56:11.574Z,-3.78
2019-01-25T02:58:39.540Z,-3.75
2019-01-25T03:01:07.178Z,-3.79
2019-01-25T03:03:35.080Z,-3.85
2019-01-25T03:06:02.714Z,-3.83
2019-01-25T03:08:30.343Z,-3.87
2019-01-25T03:10:58.271Z,-3.99
2019-01-25T03:13:26.263Z,-3.94
2019-01-25T03:15:54.208Z,-4.01
2019-01-25T03:18:22.177Z,-4.02
2019-01-25T03:20:50.200Z,-3.97
2019-01-25T03:23:18.118Z,-4.02
2019-01-25T03:25:46.082Z,-3.93
2019-01-25T03:28:14.057Z,-3.92
2019-01-25T03:30:41.707Z,-4.00
2019-01-25T03:33:09.730Z,-3.99
2019-01-25T03:35:37.673Z,-3.90
2019-01-25T03:38:05.637Z,-4.02
2019-01-25T03:40:33.262Z,-3.89
2019-01-25T03:43:01.158Z,-3.90
2019-01-25T03:45:29.133Z,-3.93
2019-01-25T03:47:57.113Z,-3.94
2019-01-25T03:50:25.068Z,-3.89
2019-01-25T03:52:53.032Z,-3.90
2019-01-25T03:55:21.011Z,-3.89
2019-01-25T03:57:48.971Z,-4.01
2019-01-25T04:00:16.954Z,-4.08
2019-01-25T04:02:44.918Z,-4.16
2019-01-25T04:05:12.886Z,-4.00
2019-01-25T04:07:40.857Z,-3.96
2019-01-25T04:10:08.484Z,-4.03
2019-01-25T04:12:36.400Z,-4.09
2019-01-25T04:15:04.354Z,-4.20
2019-01-25T04:17:32.322Z,-4.20
2019-01-25T04:20:00.309Z,-4.20
2019-01-25T04:22:27.950Z,-4.23
2019-01-25T04:24:55.580Z,-4.19
2019-01-25T04:27:23.222Z,-4.11
2019-01-25T04:29:50.855Z,-4.04
2019-01-25T04:32:18.824Z,-4.06
2019-01-25T04:34:46.794Z,-4.19
2019-01-25T04:37:14.746Z,-4.08
2019-01-25T04:39:42.720Z,-4.02
2019-01-25T04:42:10.357Z,-4.13
2019-01-25T04:44:38.241Z,-4.22
2019-01-25T04:47:06.218Z,-4.25
2019-01-25T04:49:34.138Z,-4.29
2019-01-25T04:52:02.054Z,-4.21
2019-01-25T04:54:30.022Z,-4.16
2019-01-25T04:56:58.019Z,-4.30
2019-01-25T04:59:27.192Z,-4.31
2019-01-25T05:01:55.182Z,-4.27
2019-01-25T05:04:23.133Z,-4.21
2019-01-25T05:06:51.099Z,-4.26
2019-01-25T05:09:18.734Z,-4.20
2019-01-25T05:11:46.370Z,-4.32
2019-01-25T05:14:14.309Z,-4.26
2019-01-25T05:16:41.945Z,-4.28
2019-01-25T05:19:09.571Z,-4.33
2019-01-25T05:21:37.485Z,-4.35
2019-01-25T05:24:06.391Z,-4.43
2019-01-25T05:26:34.025Z,-4.32
2019-01-25T05:29:01.657Z,-4.19
2019-01-25T05:31:29.566Z,-4.25
2019-01-25T05:33:59.191Z,-4.26
2019-01-25T05:36:27.242Z,-4.25
2019-01-25T05:38:55.212Z,-4.33
2019-01-25T05:41:28.283Z,-4.30
2019-01-25T05:43:52.791Z,-4.34
2019-01-25T05:46:20.423Z,-4.37
2019-01-25T05:48:48.323Z,-4.25
2019-01-25T05:51:16.292Z,-4.29
2019-01-25T05:53:45.902Z,-4.32
2019-01-25T05:56:13.535Z,-4.34
2019-01-25T05:58:41.166Z,-4.28
2019-01-25T06:01:09.087Z,-4.21
2019-01-25T06:03:37.062Z,-4.14
2019-01-25T06:06:05.025Z,-4.10
2019-01-25T06:08:33.651Z,-4.12
2019-01-25T06:11:01.595Z,-4.06
2019-01-25T06:13:29.552Z,-4.09
2019-01-25T06:15:57.519Z,-4.17
2019-01-25T06:18:25.492Z,-4.14
2019-01-25T06:20:53.591Z,-4.11
2019-01-25T06:23:21.535Z,-3.85
2019-01-25T06:25:50.133Z,-4.14
2019-01-25T06:28:18.093Z,-4.07
2019-01-25T06:30:46.558Z,-4.10
2019-01-25T06:33:14.547Z,-4.10
2019-01-25T06:35:42.527Z,-4.10
2019-01-25T06:38:10.161Z,-4.04
2019-01-25T06:40:38.140Z,-4.13
2019-01-25T06:43:06.110Z,-4.14
2019-01-25T06:45:34.080Z,-4.14
2019-01-25T06:48:02.052Z,-4.10
2019-01-25T06:50:29.689Z,-4.14
2019-01-25T06:52:57.684Z,-4.05
2019-01-25T06:55:25.673Z,-4.12
2019-01-25T06:57:59.770Z,-4.09
2019-01-25T07:00:28.340Z,-4.22
2019-01-25T07:02:56.325Z,-4.24
2019-01-25T07:05:23.949Z,-4.22
2019-01-25T07:07:51.850Z,-4.25
2019-01-25T07:10:19.816Z,-4.25
2019-01-25T07:12:47.888Z,-4.26
2019-01-25T07:15:17.979Z,-4.17
2019-01-25T07:17:45.610Z,-4.20
2019-01-25T07:20:13.541Z,-4.22
2019-01-25T07:22:41.180Z,-4.17
2019-01-25T07:25:09.170Z,-4.26
2019-01-25T07:27:36.824Z,-4.23
2019-01-25T07:30:05.636Z,-4.07
2019-01-25T07:32:33.264Z,-4.11
2019-01-25T07:35:00.986Z,-4.13
2019-01-25T07:37:28.945Z,-4.07
2019-01-25T07:39:56.569Z,-4.09
2019-01-25T07:42:24.293Z,-4.16
2019-01-25T07:44:51.902Z,-4.10
2019-01-25T07:47:19.874Z,-4.11
2019-01-25T07:49:47.506Z,-4.10
2019-01-25T07:52:15.402Z,-4.02
2019-01-25T07:54:43.389Z,-4.00
2019-01-25T07:57:11.018Z,-4.01
2019-01-25T07:59:39.146Z,-3.88
2019-01-25T08:02:07.076Z,-3.88
2019-01-25T08:04:34.726Z,-3.79
2019-01-25T08:07:02.516Z,-3.86
2019-01-25T08:09:30.159Z,-3.72
2019-01-25T08:11:58.131Z,-3.78
2019-01-25T08:14:26.204Z,-3.66
2019-01-25T08:16:54.202Z,-3.82
2019-01-25T08:19:22.151Z,-3.79
2019-01-25T08:21:50.120Z,-3.56
2019-01-25T08:24:18.142Z,-3.43
2019-01-25T08:26:45.813Z,-3.52
2019-01-25T08:29:13.755Z,-3.45
2019-01-25T08:31:41.690Z,-3.36
2019-01-25T08:34:09.326Z,-3.39
2019-01-25T08:36:36.968Z,-3.29
2019-01-25T08:39:06.031Z,-3.40
2019-01-25T08:41:33.644Z,-3.30
2019-01-25T08:44:01.659Z,-3.37
2019-01-25T08:46:29.285Z,-3.46
2019-01-25T08:48:57.163Z,-3.24
2019-01-25T08:51:25.162Z,-3.33
2019-01-25T08:53:53.170Z,-3.31
2019-01-25T08:56:21.069Z,-3.29
2019-01-25T08:58:48.733Z,-3.42
2019-01-25T09:01:16.340Z,-3.42
2019-01-25T09:03:44.270Z,-3.37
2019-01-25T09:06:11.895Z,-3.26
2019-01-25T09:08:39.533Z,-3.08
2019-01-25T09:11:07.453Z,-3.21
2019-01-25T09:13:35.086Z,-3.18
2019-01-25T09:16:02.982Z,-3.21
2019-01-25T09:18:30.623Z,-3.29
2019-01-25T09:20:58.721Z,-3.12
2019-01-25T09:23:26.692Z,-3.13
2019-01-25T09:26:00.909Z,-3.12
2019-01-25T09:28:24.011Z,-3.02
2019-01-25T09:30:51.934Z,-3.15
2019-01-25T09:33:19.575Z,-3.08
2019-01-25T09:35:47.214Z,-2.97
2019-01-25T09:38:15.133Z,-2.94
2019-01-25T09:40:43.092Z,-2.95
2019-01-25T09:43:11.065Z,-3.15
2019-01-25T09:45:39.041Z,-3.14
2019-01-25T09:48:07.114Z,-2.89
2019-01-25T09:50:34.757Z,-2.93
2019-01-25T09:53:02.846Z,-2.91
2019-01-25T09:55:30.816Z,-2.94
2019-01-25T09:57:58.776Z,-2.83
2019-01-25T10:00:26.741Z,-2.67
2019-01-25T10:02:54.713Z,-2.74
2019-01-25T10:05:22.441Z,-2.73
2019-01-25T10:07:50.067Z,-2.69
2019-01-25T10:10:18.109Z,-2.67
2019-01-25T10:12:46.109Z,-2.67
2019-01-25T10:15:13.754Z,-2.49
2019-01-25T10:17:41.390Z,-2.31
2019-01-25T10:20:09.416Z,-2.31
2019-01-25T10:22:37.013Z,-2.19
2019-01-25T10:25:04.695Z,-2.07
2019-01-25T10:27:32.343Z,-2.20
2019-01-25T10:30:00.395Z,-2.65
2019-01-25T10:32:28.621Z,-2.76
2019-01-25T10:34:56.298Z,-2.53
2019-01-25T10:37:24.239Z,-1.95
2019-01-25T10:39:52.213Z,-1.67
2019-01-25T10:42:19.848Z,-1.59
2019-01-25T10:44:47.492Z,-1.83
2019-01-25T10:47:15.135Z,-2.21
2019-01-25T10:49:42.785Z,-2.36
2019-01-25T10:52:10.730Z,-2.45
2019-01-25T10:54:38.698Z,-2.05
2019-01-25T10:57:06.670Z,-1.87
2019-01-25T10:59:34.638Z,-2.11
2019-01-25T11:02:02.271Z,-2.33
2019-01-25T11:04:29.939Z,-2.38
2019-01-25T11:06:57.833Z,-2.41
2019-01-25T11:09:25.807Z,-2.17
2019-01-25T11:11:53.782Z,-2.54
2019-01-25T11:14:21.441Z,-2.27
2019-01-25T11:16:49.404Z,-2.10
2019-01-25T11:19:17.390Z,-1.95
2019-01-25T11:21:45.006Z,-2.06
2019-01-25T11:24:12.659Z,-2.23
2019-01-25T11:26:40.306Z,-2.19
2019-01-25T11:29:08.228Z,-2.17
2019-01-25T11:31:35.878Z,-2.17
2019-01-25T11:34:03.515Z,-1.94
2019-01-25T11:36:31.522Z,-2.29
2019-01-25T11:38:59.170Z,-2.37
2019-01-25T11:41:27.146Z,-2.18
2019-01-25T11:43:55.126Z,-1.90
2019-01-25T11:46:23.092Z,-2.09
2019-01-25T11:48:51.075Z,-2.18
2019-01-25T11:51:19.925Z,-2.10
2019-01-25T11:53:47.645Z,-2.02
2019-01-25T11:56:15.311Z,-1.88
2019-01-25T11:58:42.949Z,-1.88
2019-01-25T12:01:10.904Z,-1.82
2019-01-25T12:03:38.523Z,-1.80
2019-01-25T12:06:06.185Z,-1.67
2019-01-25T12:08:34.111Z,-1.63
2019-01-25T12:11:02.085Z,-1.84
2019-01-25T12:13:29.732Z,-1.68
2019-01-25T12:15:57.373Z,-1.92
2019-01-25T12:18:25.383Z,-1.99
2019-01-25T12:20:52.983Z,-1.94
2019-01-25T12:23:20.616Z,-1.81
2019-01-25T12:25:48.551Z,-1.84
2019-01-25T12:28:16.527Z,-1.80
2019-01-25T12:30:44.526Z,-1.69
2019-01-25T12:33:12.139Z,-1.62
2019-01-25T12:35:39.757Z,-1.58
2019-01-25T12:38:07.714Z,-1.49
2019-01-25T12:40:35.362Z,-1.36
2019-01-25T12:43:03.322Z,-1.48
2019-01-25T12:45:31.326Z,-1.51
2019-01-25T12:47:59.262Z,-1.47
2019-01-25T12:50:27.228Z,-1.47
2019-01-25T12:52:55.196Z,-1.34
2019-01-25T12:55:23.999Z,-1.42
2019-01-25T12:57:51.956Z,-1.38
2019-01-25T13:00:23.687Z,-1.32
2019-01-25T13:02:51.559Z,-1.26
2019-01-25T13:05:19.467Z,-1.32
2019-01-25T13:07:47.083Z,-1.30
2019-01-25T13:10:15.089Z,-1.19
2019-01-25T13:12:42.719Z,-1.58
2019-01-25T13:15:10.742Z,-1.54
2019-01-25T13:17:38.712Z,-1.49
2019-01-25T13:20:06.365Z,-1.64
2019-01-25T13:22:34.317Z,-1.55
2019-01-25T13:25:03.925Z,-1.38
2019-01-25T13:27:31.572Z,-1.44
2019-01-25T13:29:59.281Z,-1.49
2019-01-25T13:32:27.166Z,-1.34
2019-01-25T13:34:55.192Z,-1.29
2019-01-25T13:37:23.244Z,-1.23
2019-01-25T13:39:51.125Z,-1.50
2019-01-25T13:42:18.779Z,-1.33
2019-01-25T13:44:46.754Z,-1.37
2019-01-25T13:47:14.731Z,-1.41
2019-01-25T13:49:42.703Z,-1.60
2019-01-25T13:52:10.667Z,-1.42
2019-01-25T13:54:38.427Z,-1.51
2019-01-25T13:57:06.071Z,-1.54
2019-01-25T13:59:33.952Z,-1.55
2019-01-25T14:02:01.612Z,-1.69
2019-01-25T14:04:29.595Z,-1.63
2019-01-25T14:06:57.235Z,-1.61
2019-01-25T14:09:24.870Z,-1.68
2019-01-25T14:11:52.563Z,-1.56
2019-01-25T14:14:20.570Z,-1.56
2019-01-25T14:16:48.211Z,-1.53
2019-01-25T14:19:15.845Z,-1.65
2019-01-25T14:21:43.774Z,-1.58
2019-01-25T14:24:11.396Z,-1.51
2019-01-25T14:26:39.388Z,-1.62
2019-01-25T14:29:07.031Z,-1.60
2019-01-25T14:31:35.004Z,-1.66
2019-01-25T14:34:02.642Z,-1.65
2019-01-25T14:36:30.281Z,-1.63
2019-01-25T14:38:58.199Z,-1.59
2019-01-25T14:41:26.178Z,-1.54
2019-01-25T14:43:54.703Z,-1.59
2019-01-25T14:46:22.514Z,-1.66
2019-01-25T14:48:50.477Z,-1.64
2019-01-25T14:51:18.453Z,-1.58
2019-01-25T14:53:50.800Z,-1.73
2019-01-25T14:56:16.033Z,-1.62
2019-01-25T14:58:43.675Z,-1.64
2019-01-25T15:01:11.664Z,-1.61
2019-01-25T15:03:39.648Z,-1.63
2019-01-25T15:06:07.291Z,-1.61
2019-01-25T15:08:35.265Z,-1.62
2019-01-25T15:11:03.238Z,-1.59
2019-01-25T15:13:31.223Z,-1.59
2019-01-25T15:15:59.179Z,-1.63
2019-01-25T15:18:26.840Z,-1.55
2019-01-25T15:20:54.815Z,-1.59
2019-01-25T15:23:22.785Z,-1.58
2019-01-25T15:25:50.741Z,-1.53
2019-01-25T15:28:18.718Z,-1.59
2019-01-25T15:30:46.694Z,-1.64
2019-01-25T15:33:14.328Z,-1.65
2019-01-25T15:35:41.962Z,-1.66
2019-01-25T15:38:09.876Z,-1.54
2019-01-25T15:40:37.503Z,-1.63
2019-01-25T15:43:05.142Z,-1.62
2019-01-25T15:45:32.777Z,-1.70
2019-01-25T15:48:00.730Z,-1.64
2019-01-25T15:50:28.699Z,-1.68
2019-01-25T15:52:56.669Z,-1.70
2019-01-25T15:55:24.644Z,-1.68
2019-01-25T15:57:52.283Z,-1.68
2019-01-25T16:00:19.932Z,-1.63
2019-01-25T16:02:47.560Z,-1.65
2019-01-25T16:05:15.492Z,-1.68
2019-01-25T16:07:43.462Z,-1.70
2019-01-25T16:10:11.432Z,-1.04
2019-01-25T16:12:39.073Z,-1.00
2019-01-25T16:15:06.963Z,-1.26
2019-01-25T16:17:34.608Z,-0.96
2019-01-25T16:20:03.463Z,-0.66
2019-01-25T16:22:31.490Z,-1.17
2019-01-25T16:24:59.129Z,-1.14
2019-01-25T16:27:27.115Z,-1.34
2019-01-25T16:29:55.083Z,-1.35
2019-01-25T16:32:23.059Z,-1.37
2019-01-25T16:34:51.025Z,-0.54
2019-01-25T16:37:18.677Z,-0.33
2019-01-25T16:39:46.550Z,-0.08
2019-01-25T16:42:14.200Z,-1.09
2019-01-25T16:44:42.084Z,-1.36
2019-01-25T16:47:10.057Z,-1.18
2019-01-25T16:49:37.692Z,-1.12
2019-01-25T16:52:05.339Z,-1.20
2019-01-25T16:54:33.257Z,-1.28
2019-01-25T16:57:01.216Z,-0.84
2019-01-25T16:59:28.852Z,-1.00
2019-01-25T17:01:56.489Z,-0.82
2019-01-25T17:04:24.126Z,-0.83
2019-01-25T17:06:51.763Z,-1.17
2019-01-25T17:09:19.407Z,-1.36
2019-01-25T17:11:47.033Z,-1.44
2019-01-25T17:14:14.953Z,-1.08
2019-01-25T17:16:42.578Z,-0.74
2019-01-25T17:19:10.224Z,-1.15
2019-01-25T17:21:37.873Z,-1.35
2019-01-25T17:24:05.816Z,-1.41
2019-01-25T17:26:33.781Z,-1.44
2019-01-25T17:29:01.411Z,-1.10
2019-01-25T17:31:29.307Z,-1.18
2019-01-25T17:33:56.998Z,-1.47
2019-01-25T17:36:24.942Z,-1.43
2019-01-25T17:38:52.914Z,-1.19
2019-01-25T17:41:20.880Z,-0.94
2019-01-25T17:43:48.851Z,-1.25
2019-01-25T17:46:16.816Z,-1.35
2019-01-25T17:48:44.788Z,-1.13
2019-01-25T17:51:12.755Z,-0.93
2019-01-25T17:53:40.404Z,-0.98
2019-01-25T17:56:08.054Z,-0.96
2019-01-25T17:58:35.954Z,-1.33
2019-01-25T18:01:03.578Z,-1.21
2019-01-25T18:03:31.581Z,-1.06
2019-01-25T18:05:59.551Z,-1.45
2019-01-25T18:08:27.200Z,-1.47
2019-01-25T18:10:54.837Z,-1.47
2019-01-25T18:13:22.845Z,-1.45
2019-01-25T18:15:50.833Z,-1.41
2019-01-25T18:18:18.785Z,-1.29
2019-01-25T18:20:46.428Z,-1.43
2019-01-25T18:23:14.075Z,-1.39
2019-01-25T18:25:41.720Z,-1.69
2019-01-25T18:28:09.637Z,-1.71
2019-01-25T18:30:37.455Z,-1.60
2019-01-25T18:33:05.106Z,-1.83
2019-01-25T18:35:33.039Z,-1.75
2019-01-25T18:38:01.016Z,-1.96
2019-01-25T18:40:28.653Z,-1.77
2019-01-25T18:42:56.640Z,-1.80
2019-01-25T18:45:24.610Z,-1.78
2019-01-25T18:47:52.254Z,-1.91
2019-01-25T18:50:20.237Z,-1.95
2019-01-25T18:52:48.209Z,-1.89
2019-01-25T18:55:15.852Z,-2.02
2019-01-25T18:57:43.489Z,-1.94
2019-01-25T19:00:11.417Z,-1.99
2019-01-25T19:02:39.367Z,-1.57
2019-01-25T19:05:07.014Z,-1.59
2019-01-25T19:07:34.646Z,-1.94
2019-01-25T19:10:02.560Z,-2.04
2019-01-25T19:12:30.534Z,-1.99
2019-01-25T19:15:04.271Z,-2.02
2019-01-25T19:17:27.832Z,-1.71
2019-01-25T19:19:55.473Z,-1.76
2019-01-25T19:22:23.452Z,-1.71
2019-01-25T19:24:51.406Z,-1.71
2019-01-25T19:27:19.037Z,-1.87
2019-01-25T19:29:46.688Z,-1.82
2019-01-25T19:32:14.600Z,-1.83
2019-01-25T19:34:42.247Z,-1.72
2019-01-25T19:37:09.872Z,-1.87
2019-01-25T19:39:37.784Z,-1.82
2019-01-25T19:42:05.419Z,-2.00
2019-01-25T19:44:33.148Z,-2.16
2019-01-25T19:47:00.772Z,-1.83
2019-01-25T19:49:28.417Z,-1.64
2019-01-25T19:51:56.066Z,-2.10
2019-01-25T19:54:23.984Z,-2.02
2019-01-25T19:56:52.137Z,-2.14
2019-01-25T19:59:19.779Z,-2.09
2019-01-25T20:01:47.415Z,-1.97
2019-01-25T20:04:15.045Z,-2.06
2019-01-25T20:06:43.004Z,-2.19
2019-01-25T20:09:10.963Z,-2.16
2019-01-25T20:11:38.934Z,-2.22
2019-01-25T20:14:06.567Z,-2.29
2019-01-25T20:16:34.194Z,-2.25
2019-01-25T20:19:01.846Z,-2.15
2019-01-25T20:21:29.790Z,-2.37
2019-01-25T20:23:57.430Z,-2.43
2019-01-25T20:26:25.450Z,-2.18
2019-01-25T20:28:53.064Z,-1.95
2019-01-25T20:31:21.048Z,-2.16
2019-01-25T20:33:49.020Z,-2.21
2019-01-25T20:36:16.991Z,-1.95
2019-01-25T20:38:44.635Z,-1.85
2019-01-25T20:41:12.264Z,-1.89
2019-01-25T20:43:39.912Z,-2.04
2019-01-25T20:46:07.864Z,-1.98
2019-01-25T20:48:35.816Z,-1.79
2019-01-25T20:51:03.785Z,-1.92
2019-01-25T20:53:31.765Z,-1.89
2019-01-25T20:55:59.401Z,-1.85
2019-01-25T20:58:27.385Z,-1.84
2019-01-25T21:00:55.080Z,-2.04
2019-01-25T21:03:22.762Z,-1.86
2019-01-25T21:05:50.678Z,-1.86
2019-01-25T21:08:18.310Z,-1.79
2019-01-25T21:10:46.207Z,-1.74
2019-01-25T21:13:14.178Z,-1.78
2019-01-25T21:15:42.141Z,-1.81
2019-01-25T21:18:10.184Z,-1.78
2019-01-25T21:20:38.089Z,-1.78
2019-01-25T21:23:06.055Z,-1.71
2019-01-25T21:25:34.031Z,-1.76
2019-01-25T21:28:01.662Z,-1.70
2019-01-25T21:30:29.329Z,-1.78
2019-01-25T21:32:57.230Z,-1.74
2019-01-25T21:35:24.872Z,-1.76
2019-01-25T21:37:52.856Z,-1.75
2019-01-25T21:40:20.820Z,-1.73
2019-01-25T21:42:49.280Z,-1.78
2019-01-25T21:45:17.271Z,-1.65
2019-01-25T21:47:44.905Z,-1.65
2019-01-25T21:50:12.808Z,-1.64
2019-01-25T21:52:40.429Z,-1.67
2019-01-25T21:55:08.072Z,-1.72
2019-01-25T21:57:35.701Z,-1.62
2019-01-25T22:00:03.677Z,-1.67
2019-01-25T22:02:31.633Z,-1.58
2019-01-25T22:04:59.269Z,-1.60
2019-01-25T22:07:27.158Z,-1.61
2019-01-25T22:09:54.790Z,-1.64
2019-01-25T22:12:22.688Z,-1.61
2019-01-25T22:14:50.656Z,-1.62
2019-01-25T22:17:18.355Z,-1.57
2019-01-25T22:19:45.994Z,-1.56
2019-01-25T22:22:13.950Z,-1.61
2019-01-25T22:24:41.918Z,-1.61
2019-01-25T22:27:09.900Z,-1.49
2019-01-25T22:29:37.859Z,-1.57
2019-01-25T22:32:05.826Z,-1.58
2019-01-25T22:34:33.808Z,-1.62
2019-01-25T22:37:01.765Z,-1.67
2019-01-25T22:39:29.739Z,-1.70
2019-01-25T22:41:57.379Z,-1.68
2019-01-25T22:44:25.371Z,-1.69
2019-01-25T22:46:53.339Z,-1.68
2019-01-25T22:49:20.961Z,-1.61
2019-01-25T22:51:48.873Z,-1.74
2019-01-25T22:54:16.839Z,-1.71
2019-01-25T22:56:44.811Z,-1.68
2019-01-25T22:59:12.775Z,-1.66
2019-01-25T23:01:40.746Z,-1.66
2019-01-25T23:04:08.716Z,-1.62
2019-01-25T23:06:36.682Z,-1.64
2019-01-25T23:09:05.739Z,-1.57
2019-01-25T23:11:33.646Z,-1.67
2019-01-25T23:14:01.617Z,-1.65
2019-01-25T23:16:29.588Z,-1.66
2019-01-25T23:18:57.558Z,-1.60
2019-01-25T23:21:25.524Z,-1.61
2019-01-25T23:23:53.144Z,-1.58
2019-01-25T23:26:20.775Z,-1.50
2019-01-25T23:28:48.714Z,-1.46
2019-01-25T23:31:16.683Z,-1.50
2019-01-25T23:33:44.671Z,-1.55
2019-01-25T23:36:12.627Z,-1.51
2019-01-25T23:38:40.255Z,-1.39
2019-01-25T23:41:08.157Z,-1.43
2019-01-25T23:43:36.126Z,-1.45
2019-01-25T23:46:03.761Z,-1.43
2019-01-25T23:48:31.675Z,-1.44
2019-01-25T23:50:59.309Z,-1.37
2019-01-25T23:53:26.934Z,-1.35
2019-01-25T23:55:54.847Z,-1.35
2019-01-25T23:58:22.815Z,-1.33
